Hauptseite
METAR-TAF:

METAR-TAF

Flughäfen :

Dubai, Vereinigte Arabische Emirate

Flughafen Dubai

Breite: 25-15-10N, Länge: 055-21-52E, Höhe: 8 m

Beobachtung

Neuester Wetterbericht von vor 41 Minuten, um 14:00 UTC
Wind 13 kt aus Nord/Nordwest
Temperatur 38°C
Luftfeuchtigkeit 48%
Luftdruck 996 hPa
Sichtweite: 7000 m

METAR: OMDB 221400Z 34013KT 7000 NSC 38/25 Q0996 NOSIG

Zeit: 18:41 (14:41 UTC)

Prognose

Neuester Wetterbericht von vor 3 Stunden und 41 Minuten, um 11:00 UTC
Gültige Prognose vom 22 um 12 UTC bis 23 um 18 UTC
Wind 12 kt aus Nord/Nordwest
Sichtweite: 8000 m
Übergehend zu
vom 22 um 16 UTC bis 22 um 18 UTC
Wind 5 kt aus Ost/Nordost
Übergehend zu
vom 23 um 07 UTC bis 23 um 09 UTC
Wind 12 kt aus Nordwest
Übergehend zu
vom 23 um 16 UTC bis 23 um 18 UTC
Wind 5 kt aus Ost/Nordost

TAF: OMDB 221100Z 2212/2318 33012KT 8000 NSC BECMG 2216/2218 06005KT BECMG 2307/2309 31012KT BECMG 2316/2318 06005KT

Wetterbeobachtungen und Prognosen von mehr als 4000 Flughäfen (METAR und TAF Bericht).

Die verfügbaren Stationen werden durch gelbe und rote Markierungen auf der Karte dargestellt.

Führen Sie die Maus auf sie, um den Namen der Station zu sehen.

Darauf klicken, um die Beobachtung von Wetterbeobachtungen und Prognosen zu sehen.

Um die Karte zu ändern : klicken Sie auf den grünen Tasten mit einem schwarzen Kreuz Zum Vergrößern, auf den grünen Button mit einem Gedankenstrich zu verkleinern, oder auf die grünen Pfeile für benachbarte Karten.


METAR-TAF: